Time;durP1;ratioP1;P1;durP2;ratioP2;P2;SDS_P1;SDS_P2;PMS_P1;PMS_P2;Temp;Humidity;BMP_temperature;BMP_pressure;BME280_temperature;BME280_humidity;BME280_pressure;Samples;Min_cycle;Max_cycle;Signal;HPM_P1;HPM_P2
2022/04/03 00:00:06;;;;;;;11.75;8.38;;;;;;;-3.34;100.00;92821.72;2090573;28;20035;-84
2022/04/03 00:01:07;;;;;;;11.38;9.05;;;;;;;-3.36;100.00;92825.78;2098615;28;20146;-83
2022/04/03 00:02:08;;;;;;;13.55;9.65;;;;;;;-3.37;100.00;92824.25;2101678;28;20024;-83
2022/04/03 00:03:10;;;;;;;12.43;9.75;;;;;;;-3.41;100.00;92824.16;2090159;28;20608;-82
2022/04/03 00:04:11;;;;;;;11.52;9.63;;;;;;;-3.42;100.00;92827.13;2097986;28;20021;-83
2022/04/03 00:05:13;;;;;;;10.25;9.07;;;;;;;-3.41;100.00;92823.41;2098607;28;20119;-83
2022/04/03 00:06:15;;;;;;;11.93;8.88;;;;;;;-3.46;100.00;92824.41;2089999;28;20028;-82
2022/04/03 00:07:16;;;;;;;12.80;9.38;;;;;;;-3.46;100.00;92819.19;2091728;28;20021;-81
2022/04/03 00:08:16;;;;;;;12.82;9.93;;;;;;;-3.40;100.00;92817.09;2092168;28;20414;-82
2022/04/03 00:09:17;;;;;;;10.80;8.75;;;;;;;-3.45;100.00;92819.94;2089897;28;20031;-81
2022/04/03 00:10:19;;;;;;;12.73;9.65;;;;;;;-3.38;100.00;92814.88;2090012;28;20100;-83
2022/04/03 00:11:20;;;;;;;12.93;9.73;;;;;;;-3.47;100.00;92815.03;2089918;28;20025;-82
2022/04/03 00:12:22;;;;;;;11.88;9.63;;;;;;;-3.26;100.00;92825.28;2098616;28;20036;-82
2022/04/03 00:13:23;;;;;;;12.52;9.93;;;;;;;-3.21;100.00;92822.41;2095923;28;20099;-83
2022/04/03 00:14:25;;;;;;;11.43;9.40;;;;;;;-3.18;100.00;92821.00;2094344;28;20021;-82
2022/04/03 00:15:27;;;;;;;12.02;9.23;;;;;;;-3.36;100.00;92816.06;2104738;28;20053;-82
2022/04/03 00:16:28;;;;;;;12.63;9.93;;;;;;;-3.44;100.00;92811.75;2103273;28;20030;-82
2022/04/03 00:17:30;;;;;;;11.60;9.68;;;;;;;-3.45;100.00;92823.31;2111385;28;20032;-83
2022/04/03 00:18:32;;;;;;;12.07;10.55;;;;;;;-3.43;100.00;92825.59;2095705;28;20024;-81
2022/04/03 00:19:33;;;;;;;14.63;9.60;;;;;;;-3.45;100.00;92820.69;2099674;28;20588;-81
2022/04/03 00:20:38;;;;;;;15.05;9.95;;;;;;;-3.37;100.00;92821.66;2114393;28;20031;-82
2022/04/03 00:21:39;;;;;;;11.35;8.82;;;;;;;-3.29;100.00;92831.19;2107714;28;20055;-82
2022/04/03 00:22:40;;;;;;;13.77;10.98;;;;;;;-3.35;100.00;92816.84;2114801;28;20027;-83
2022/04/03 00:23:41;;;;;;;12.45;9.90;;;;;;;-3.44;100.00;92818.84;2114828;28;20015;-82
2022/04/03 00:24:43;;;;;;;14.85;10.10;;;;;;;-3.46;100.00;92821.06;2116662;27;20108;-81
2022/04/03 00:25:44;;;;;;;12.65;10.05;;;;;;;-3.37;100.00;92816.44;2107889;28;20023;-83
2022/04/03 00:26:45;;;;;;;12.35;9.57;;;;;;;-3.43;100.00;92821.13;2092981;28;20066;-83
2022/04/03 00:27:46;;;;;;;13.35;10.60;;;;;;;-3.39;100.00;92824.56;2097921;28;20020;-82
2022/04/03 00:28:47;;;;;;;12.38;9.13;;;;;;;-3.40;100.00;92820.44;2087815;28;20125;-83
2022/04/03 00:29:48;;;;;;;11.13;9.68;;;;;;;-3.45;100.00;92825.19;2101865;28;20513;-81
2022/04/03 00:30:49;;;;;;;11.32;9.15;;;;;;;-3.36;100.00;92829.16;2091581;28;20355;-83
2022/04/03 00:31:50;;;;;;;12.60;9.65;;;;;;;-3.18;100.00;92828.81;2106597;28;20408;-82
2022/04/03 00:32:51;;;;;;;13.13;9.75;;;;;;;-3.27;100.00;92823.75;2104812;28;20430;-82
2022/04/03 00:33:52;;;;;;;11.90;9.57;;;;;;;-3.39;100.00;92829.06;2102363;28;20028;-81
2022/04/03 00:34:53;;;;;;;14.93;9.95;;;;;;;-3.37;100.00;92822.41;2098195;28;20051;-82
2022/04/03 00:35:54;;;;;;;12.23;9.57;;;;;;;-3.36;100.00;92828.38;2101384;28;20059;-82
2022/04/03 00:36:55;;;;;;;12.35;9.75;;;;;;;-3.31;100.00;92820.31;2093023;28;20063;-81
2022/04/03 00:37:57;;;;;;;11.18;9.40;;;;;;;-3.43;100.00;92822.97;2096932;28;20024;-81
2022/04/03 00:38:58;;;;;;;11.10;9.82;;;;;;;-3.40;100.00;92830.91;2097992;28;20020;-82
2022/04/03 00:39:59;;;;;;;11.80;9.93;;;;;;;-3.35;100.00;92820.19;2103823;28;20043;-82
2022/04/03 00:41:02;;;;;;;11.70;9.57;;;;;;;-3.30;100.00;92827.78;2098952;28;20024;-81
2022/04/03 00:42:06;;;;;;;14.90;9.85;;;;;;;-3.22;100.00;92833.22;2090347;28;20025;-84
2022/04/03 00:43:08;;;;;;;14.00;9.48;;;;;;;-3.20;100.00;92823.19;2107481;28;20024;-84
2022/04/03 00:44:11;;;;;;;12.40;9.75;;;;;;;-3.19;100.00;92832.53;2110432;27;20864;-82
2022/04/03 00:45:13;;;;;;;15.52;10.10;;;;;;;-3.33;100.00;92825.13;2107495;28;20413;-82
2022/04/03 00:46:19;;;;;;;11.45;9.60;;;;;;;-3.31;100.00;92826.28;2106460;28;20103;-81
2022/04/03 00:47:23;;;;;;;12.15;9.93;;;;;;;-3.41;100.00;92826.03;2106407;28;20016;-81
2022/04/03 00:48:24;;;;;;;12.38;9.55;;;;;;;-3.45;100.00;92820.69;2105904;28;20553;-80
2022/04/03 00:49:27;;;;;;;12.75;9.57;;;;;;;-3.32;100.00;92821.41;2109697;28;20031;-82
2022/04/03 00:50:29;;;;;;;13.98;9.82;;;;;;;-3.32;100.00;92831.84;2092474;28;20025;-82
2022/04/03 00:51:30;;;;;;;12.00;9.88;;;;;;;-3.29;100.00;92825.97;2089758;28;20026;-82
2022/04/03 00:52:33;;;;;;;13.23;9.98;;;;;;;-3.24;100.00;92824.97;2116859;27;20029;-81
2022/04/03 00:53:34;;;;;;;15.07;9.68;;;;;;;-3.32;100.00;92831.84;2104639;28;20039;-81
2022/04/03 00:54:35;;;;;;;13.43;10.30;;;;;;;-3.28;100.00;92824.88;2107429;28;20028;-82
2022/04/03 00:55:40;;;;;;;12.88;9.73;;;;;;;-3.35;100.00;92832.50;2094169;28;20047;-82
2022/04/03 00:56:41;;;;;;;14.05;10.02;;;;;;;-3.39;100.00;92829.06;2097479;28;20025;-82
2022/04/03 00:57:43;;;;;;;12.93;9.70;;;;;;;-3.16;100.00;92824.78;2092174;28;20032;-82
2022/04/03 00:58:44;;;;;;;14.57;9.70;;;;;;;-3.09;100.00;92832.78;2094189;28;20494;-82
2022/04/03 00:59:45;;;;;;;11.73;9.52;;;;;;;-3.10;100.00;92835.75;2090262;28;20066;-82
2022/04/03 01:00:46;;;;;;;12.13;9.55;;;;;;;-3.16;100.00;92826.63;2098795;28;20028;-81
2022/04/03 01:01:47;;;;;;;11.43;9.50;;;;;;;-3.20;100.00;92831.78;2106272;28;20058;-82
2022/04/03 01:02:49;;;;;;;13.48;9.70;;;;;;;-3.15;100.00;92836.75;2096582;28;20028;-82
2022/04/03 01:03:50;;;;;;;14.93;10.18;;;;;;;-3.16;100.00;92830.03;2092042;28;20031;-81
2022/04/03 01:04:52;;;;;;;11.85;9.48;;;;;;;-3.20;100.00;92831.03;2102353;28;20031;-81
2022/04/03 01:05:53;;;;;;;12.40;10.27;;;;;;;-3.33;100.00;92830.34;2092387;28;20029;-83
2022/04/03 01:06:54;;;;;;;12.27;9.50;;;;;;;-3.19;100.00;92838.53;2103940;28;20055;-83
2022/04/03 01:07:56;;;;;;;12.90;9.60;;;;;;;-3.26;100.00;92837.59;2094551;28;20075;-83
2022/04/03 01:08:58;;;;;;;12.02;9.27;;;;;;;-3.31;100.00;92830.75;2103613;28;20465;-82
2022/04/03 01:09:59;;;;;;;14.18;9.73;;;;;;;-3.33;100.00;92830.34;2099193;28;20031;-81
2022/04/03 01:11:00;;;;;;;11.63;9.85;;;;;;;-3.31;100.00;92831.50;2098256;28;20025;-82
2022/04/03 01:12:02;;;;;;;11.60;9.55;;;;;;;-3.42;100.00;92840.19;2097638;28;20044;-81
2022/04/03 01:13:03;;;;;;;14.32;10.68;;;;;;;-3.37;100.00;92837.31;2089414;28;20525;-81
2022/04/03 01:14:05;;;;;;;13.27;9.77;;;;;;;-3.25;100.00;92833.88;2097657;28;20919;-82
2022/04/03 01:15:07;;;;;;;12.80;9.52;;;;;;;-2.98;100.00;92837.53;2089440;28;20025;-82
2022/04/03 01:16:08;;;;;;;10.82;9.23;;;;;;;-2.99;100.00;92841.22;2100586;28;20028;-82
2022/04/03 01:17:13;;;;;;;13.40;10.18;;;;;;;-2.88;100.00;92835.16;2106115;28;20020;-81
2022/04/03 01:18:14;;;;;;;11.13;9.45;;;;;;;-2.95;100.00;92831.63;2095962;28;20025;-82
2022/04/03 01:19:15;;;;;;;11.95;9.75;;;;;;;-3.17;100.00;92833.72;2091732;28;20726;-84
2022/04/03 01:20:18;;;;;;;12.88;9.90;;;;;;;-3.07;100.00;92835.84;2089436;28;20110;-81
2022/04/03 01:21:20;;;;;;;14.13;10.25;;;;;;;-3.02;100.00;92837.44;2086842;28;20463;-83
2022/04/03 01:22:22;;;;;;;11.73;9.80;;;;;;;-2.95;100.00;92836.84;2090173;28;20024;-82
2022/04/03 01:23:25;;;;;;;13.57;9.82;;;;;;;-3.14;100.00;92838.28;2099692;28;20448;-81
2022/04/03 01:24:27;;;;;;;13.55;10.35;;;;;;;-3.10;100.00;92835.75;2092503;28;20017;-83
2022/04/03 01:25:30;;;;;;;12.13;9.02;;;;;;;-3.15;100.00;92833.38;2092657;28;20028;-81
2022/04/03 01:26:31;;;;;;;12.30;9.27;;;;;;;-3.14;100.00;92840.13;2096689;28;20078;-83
2022/04/03 01:27:33;;;;;;;12.48;9.50;;;;;;;-3.17;100.00;92838.19;2092966;28;20040;-82
2022/04/03 01:28:35;;;;;;;13.52;9.80;;;;;;;-2.88;100.00;92837.03;2102617;27;20083;-82
2022/04/03 01:29:36;;;;;;;12.13;9.63;;;;;;;-3.01;100.00;92846.03;2098120;28;20024;-83
2022/04/03 01:30:37;;;;;;;14.07;10.15;;;;;;;-3.07;100.00;92842.94;2094462;28;20144;-83
2022/04/03 01:31:38;;;;;;;12.00;9.70;;;;;;;-3.14;100.00;92837.53;2100638;28;20461;-81
2022/04/03 01:32:40;;;;;;;14.68;9.55;;;;;;;-3.08;100.00;92838.78;2096539;28;20028;-82
2022/04/03 01:33:41;;;;;;;14.30;10.10;;;;;;;-3.01;100.00;92843.44;2097737;28;20056;-81
2022/04/03 01:34:43;;;;;;;15.98;10.43;;;;;;;-3.19;100.00;92841.13;2112235;28;20034;-81
2022/04/03 01:35:45;;;;;;;12.30;9.88;;;;;;;-3.04;100.00;92844.84;2095051;28;20029;-81
2022/04/03 01:36:47;;;;;;;12.80;9.73;;;;;;;-2.96;100.00;92838.69;2099194;28;20035;-82
2022/04/03 01:37:48;;;;;;;12.43;9.23;;;;;;;-3.17;100.00;92844.16;2113546;27;20049;-81
2022/04/03 01:38:49;;;;;;;13.38;10.00;;;;;;;-3.20;100.00;92837.00;2098784;28;20051;-81
2022/04/03 01:39:51;;;;;;;13.35;10.07;;;;;;;-3.25;100.00;92839.09;2097649;28;20021;-82
2022/04/03 01:40:53;;;;;;;15.02;10.93;;;;;;;-3.12;100.00;92843.91;2082791;28;20057;-81
2022/04/03 01:41:54;;;;;;;13.80;10.32;;;;;;;-2.93;100.00;92838.03;2097202;28;20032;-82
2022/04/03 01:42:54;;;;;;;16.98;10.60;;;;;;;-2.99;100.00;92841.97;2089296;28;20108;-82
2022/04/03 01:43:56;;;;;;;13.13;10.57;;;;;;;-2.99;100.00;92841.97;2089226;28;20461;-81
2022/04/03 01:44:57;;;;;;;12.02;9.80;;;;;;;-2.90;100.00;92844.44;2103113;28;20036;-81
2022/04/03 01:45:58;;;;;;;14.10;10.60;;;;;;;-2.87;100.00;92836.69;2109434;28;20019;-81
2022/04/03 01:46:59;;;;;;;14.52;10.27;;;;;;;-3.07;100.00;92840.31;2104480;28;20023;-83
2022/04/03 01:48:01;;;;;;;15.00;11.02;;;;;;;-3.01;100.00;92846.81;2097123;28;20033;-83
2022/04/03 01:49:04;;;;;;;13.30;10.25;;;;;;;-3.13;100.00;92844.25;2090103;28;21168;-83
2022/04/03 01:50:06;;;;;;;12.07;10.20;;;;;;;-3.16;100.00;92839.69;2101240;28;20029;-82
2022/04/03 01:51:07;;;;;;;13.05;10.10;;;;;;;-3.12;100.00;92841.28;2106647;28;20074;-83
2022/04/03 01:52:08;;;;;;;14.10;10.95;;;;;;;-3.14;100.00;92840.88;2099372;28;20158;-84
2022/04/03 01:53:09;;;;;;;16.50;10.90;;;;;;;-3.17;100.00;92838.94;2089028;28;20037;-84
2022/04/03 01:54:11;;;;;;;13.98;10.90;;;;;;;-3.14;100.00;92840.88;2098449;28;20032;-84
2022/04/03 01:55:12;;;;;;;13.63;10.82;;;;;;;-3.20;100.00;92839.63;2094072;28;20380;-83
2022/04/03 01:56:13;;;;;;;13.85;10.88;;;;;;;-3.38;100.00;92836.56;2090527;28;20028;-82
2022/04/03 01:57:14;;;;;;;13.10;10.00;;;;;;;-3.20;100.00;92837.00;2097228;28;20064;-83
2022/04/03 01:58:15;;;;;;;19.23;11.52;;;;;;;-3.15;100.00;92831.53;2100145;28;20032;-84
2022/04/03 01:59:17;;;;;;;14.27;10.98;;;;;;;-3.34;100.00;92834.78;2097554;28;20082;-83
2022/04/03 02:00:19;;;;;;;15.25;11.38;;;;;;;-3.19;100.00;92835.91;2092795;28;20064;-83
2022/04/03 02:01:20;;;;;;;15.18;10.68;;;;;;;-3.21;100.00;92837.34;2099548;28;20020;-83
2022/04/03 02:02:21;;;;;;;14.52;10.63;;;;;;;-3.25;100.00;92836.47;2114286;28;20028;-84
2022/04/03 02:03:24;;;;;;;14.65;11.13;;;;;;;-3.24;100.00;92835.41;2094397;28;20078;-83
2022/04/03 02:04:25;;;;;;;13.48;10.43;;;;;;;-3.26;100.00;92840.94;2096271;28;20430;-82
2022/04/03 02:05:27;;;;;;;13.98;11.25;;;;;;;-3.20;100.00;92829.19;2089052;28;20032;-83
2022/04/03 02:06:28;;;;;;;16.42;11.02;;;;;;;-3.24;100.00;92833.56;2098125;28;20028;-82
2022/04/03 02:07:30;;;;;;;15.07;11.23;;;;;;;-3.22;100.00;92835.81;2095438;28;20082;-82
2022/04/03 02:08:31;;;;;;;14.80;11.35;;;;;;;-3.25;100.00;92832.00;2106224;28;20035;-83
2022/04/03 02:09:32;;;;;;;15.05;10.75;;;;;;;-3.22;100.00;92835.81;2119642;27;21060;-82
2022/04/03 02:12:24;;;;;;;14.25;10.30;;;;;;;-3.19;100.00;92843.75;2138966;27;20190;-82
2022/04/03 02:13:26;;;;;;;20.40;11.15;;;;;;;-3.16;100.00;92845.69;2128658;27;20079;-81
2022/04/03 02:14:26;;;;;;;18.45;10.75;;;;;;;-3.05;100.00;92838.88;2113356;28;20035;-82
2022/04/03 02:15:28;;;;;;;15.98;11.55;;;;;;;-3.09;100.00;92845.88;2112485;28;20035;-83
2022/04/03 02:16:29;;;;;;;14.98;11.80;;;;;;;-3.23;100.00;92850.75;2106792;28;20028;-82
2022/04/03 02:17:30;;;;;;;14.77;10.80;;;;;;;-3.18;100.00;92839.28;2104811;28;20028;-82
2022/04/03 02:18:31;;;;;;;15.45;11.80;;;;;;;-3.32;100.00;92844.91;2112001;28;20030;-83
2022/04/03 02:19:34;;;;;;;15.15;11.68;;;;;;;-3.35;100.00;92846.34;2112431;28;20024;-84
2022/04/03 02:20:36;;;;;;;15.80;12.02;;;;;;;-3.30;100.00;92845.31;2108410;27;20020;-82
2022/04/03 02:21:38;;;;;;;18.60;11.98;;;;;;;-3.30;100.00;92840.09;2120208;28;20028;-82
2022/04/03 02:22:39;;;;;;;16.65;12.05;;;;;;;-3.32;100.00;92850.16;2104729;28;20024;-83
2022/04/03 02:23:41;;;;;;;18.73;12.00;;;;;;;-3.32;100.00;92845.66;2100344;28;20031;-82
2022/04/03 02:24:42;;;;;;;14.52;11.90;;;;;;;-3.27;100.00;92846.53;2104454;28;20125;-82
2022/04/03 02:25:43;;;;;;;16.90;11.77;;;;;;;-3.24;100.00;92851.09;2103499;28;20036;-83
2022/04/03 02:26:44;;;;;;;17.33;11.75;;;;;;;-3.24;100.00;92846.63;2103267;28;20109;-82
2022/04/03 02:27:46;;;;;;;15.18;11.68;;;;;;;-3.14;100.00;92851.34;2111228;28;20114;-83
2022/04/03 02:28:47;;;;;;;17.75;11.50;;;;;;;-3.01;100.00;92848.66;2121778;27;20645;-84
2022/04/03 02:29:50;;;;;;;14.57;11.65;;;;;;;-3.16;100.00;92845.69;2110978;28;20075;-83
2022/04/03 02:30:51;;;;;;;19.80;12.50;;;;;;;-3.09;100.00;92850.34;2104898;28;20054;-82
2022/04/03 02:31:52;;;;;;;13.40;10.85;;;;;;;-2.96;100.00;92848.41;2112799;28;20076;-82
2022/04/03 02:32:53;;;;;;;16.50;12.48;;;;;;;-3.12;100.00;92853.59;2112739;28;20600;-82
2022/04/03 02:33:54;;;;;;;13.80;10.63;;;;;;;-3.10;100.00;92846.22;2112779;28;20020;-82
2022/04/03 02:34:55;;;;;;;16.20;12.30;;;;;;;-3.02;100.00;92858.38;2112560;28;20069;-81
2022/04/03 02:35:56;;;;;;;15.23;11.38;;;;;;;-2.98;100.00;92843.53;2120677;28;20127;-83
2022/04/03 02:36:57;;;;;;;14.55;11.60;;;;;;;-2.84;100.00;92843.09;2112806;28;20384;-82
2022/04/03 02:37:58;;;;;;;16.13;12.10;;;;;;;-2.89;100.00;92845.97;2104527;28;20055;-83
2022/04/03 02:38:59;;;;;;;17.63;12.13;;;;;;;-3.04;100.00;92850.84;2104541;28;20028;-82
2022/04/03 02:40:02;;;;;;;19.40;12.50;;;;;;;-3.03;100.00;92851.59;2104104;28;20115;-83
2022/04/03 02:41:04;;;;;;;15.85;11.73;;;;;;;-3.08;100.00;92852.59;2121637;27;20122;-81
2022/04/03 02:42:05;;;;;;;14.75;11.80;;;;;;;-3.14;100.00;92851.34;2113022;28;20116;-83
2022/04/03 02:43:06;;;;;;;22.13;11.60;;;;;;;-3.05;100.00;92853.78;2112779;28;20031;-81
2022/04/03 02:44:07;;;;;;;14.57;11.48;;;;;;;-3.08;100.00;92859.69;2108659;28;20028;-82
2022/04/03 02:45:13;;;;;;;19.13;11.63;;;;;;;-3.16;100.00;92858.78;2110578;28;20047;-81
2022/04/03 02:46:14;;;;;;;18.38;11.75;;;;;;;-3.14;100.00;92861.81;2107296;28;20101;-82
2022/04/03 02:47:15;;;;;;;13.98;11.48;;;;;;;-2.88;100.00;92857.94;2098434;28;20029;-83
2022/04/03 02:48:16;;;;;;;16.75;11.70;;;;;;;-2.87;100.00;92859.47;2116866;28;20077;-84
2022/04/03 02:49:18;;;;;;;16.67;11.63;;;;;;;-2.86;100.00;92856.50;2125169;27;20019;-84
2022/04/03 02:50:24;;;;;;;15.45;11.43;;;;;;;-2.88;100.00;92857.94;2112582;28;20055;-80
2022/04/03 02:51:25;;;;;;;15.88;11.35;;;;;;;-3.01;100.00;92859.13;2097299;28;20385;-81
2022/04/03 02:52:26;;;;;;;14.57;10.88;;;;;;;-3.02;100.00;92860.22;2104464;28;20020;-82
2022/04/03 02:53:27;;;;;;;14.40;10.85;;;;;;;-2.94;100.00;92851.44;2096784;28;20041;-83
2022/04/03 02:54:28;;;;;;;18.48;11.27;;;;;;;-2.85;100.00;92858.03;2104365;28;20463;-82
2022/04/03 02:55:29;;;;;;;19.38;11.80;;;;;;;-2.95;100.00;92861.13;2112804;28;20024;-83
2022/04/03 02:56:30;;;;;;;16.02;11.45;;;;;;;-3.06;100.00;92852.28;2100544;28;20028;-83
2022/04/03 02:57:31;;;;;;;15.98;11.73;;;;;;;-3.04;100.00;92857.94;2104198;28;20048;-81
2022/04/03 02:58:32;;;;;;;18.48;11.60;;;;;;;-2.91;100.00;92854.13;2104261;28;20169;-83
2022/04/03 02:59:33;;;;;;;16.45;11.20;;;;;;;-3.04;100.00;92863.91;2098855;28;20028;-82
2022/04/03 03:00:35;;;;;;;13.98;11.10;;;;;;;-3.06;100.00;92860.13;2111916;28;20106;-82
2022/04/03 03:01:36;;;;;;;17.75;11.38;;;;;;;-2.93;100.00;92863.44;2113033;27;20759;-82
2022/04/03 03:02:37;;;;;;;19.25;11.77;;;;;;;-3.02;100.00;92860.22;2107626;28;20021;-84
2022/04/03 03:03:38;;;;;;;17.30;11.88;;;;;;;-3.08;100.00;92857.06;2110690;28;20015;-82
2022/04/03 03:04:39;;;;;;;18.35;11.90;;;;;;;-2.88;100.00;92858.69;2110513;28;20501;-83
2022/04/03 03:05:41;;;;;;;18.42;11.40;;;;;;;-3.00;100.00;92861.38;2112389;28;20028;-82
2022/04/03 03:06:42;;;;;;;16.58;11.60;;;;;;;-2.99;100.00;92860.28;2104494;28;20021;-81
2022/04/03 03:07:47;;;;;;;15.45;11.55;;;;;;;-2.99;100.00;92862.91;2112331;28;20354;-83
2022/04/03 03:08:48;;;;;;;18.00;11.77;;;;;;;-3.05;100.00;92859.78;2113224;28;20019;-81
2022/04/03 03:09:49;;;;;;;16.08;11.65;;;;;;;-3.07;100.00;92856.75;2121053;27;20515;-83
2022/04/03 03:10:50;;;;;;;16.08;11.73;;;;;;;-3.05;100.00;92862.41;2120841;28;20027;-83
2022/04/03 03:11:51;;;;;;;14.70;11.57;;;;;;;-3.14;100.00;92861.03;2095192;28;20052;-82
2022/04/03 03:12:53;;;;;;;18.73;12.52;;;;;;;-3.13;100.00;92865.94;2099413;28;20056;-83
2022/04/03 03:13:54;;;;;;;16.42;12.30;;;;;;;-3.14;100.00;92858.44;2103295;28;20021;-81
2022/04/03 03:14:56;;;;;;;16.98;11.70;;;;;;;-2.96;100.00;92864.09;2104030;28;20016;-83
2022/04/03 03:15:57;;;;;;;15.23;12.13;;;;;;;-2.97;100.00;92868.56;2096042;28;20036;-84
2022/04/03 03:16:58;;;;;;;13.52;11.52;;;;;;;-3.13;100.00;92865.94;2093509;28;20021;-83
2022/04/03 03:17:59;;;;;;;17.02;12.48;;;;;;;-3.08;100.00;92863.06;2096473;28;20025;-82
2022/04/03 03:19:00;;;;;;;16.60;12.02;;;;;;;-3.16;100.00;92863.22;2095953;28;20028;-82
2022/04/03 03:20:01;;;;;;;16.80;11.77;;;;;;;-3.16;100.00;92866.63;2097871;28;20096;-84
2022/04/03 03:21:03;;;;;;;16.63;12.02;;;;;;;-2.94;100.00;92859.28;2104217;28;20036;-84
2022/04/03 03:22:07;;;;;;;14.30;11.52;;;;;;;-3.08;100.00;92857.84;2108465;28;20514;-83
2022/04/03 03:23:08;;;;;;;18.00;12.63;;;;;;;-2.88;100.00;92858.69;2104192;28;20032;-84
2022/04/03 03:24:09;;;;;;;17.58;12.10;;;;;;;-3.07;100.00;92863.84;2088781;28;20091;-84
2022/04/03 03:25:11;;;;;;;20.02;11.80;;;;;;;-3.17;100.00;92862.47;2089295;28;20025;-84
2022/04/03 03:26:12;;;;;;;16.63;12.77;;;;;;;-2.97;100.00;92862.59;2090590;28;20036;-83
2022/04/03 03:27:13;;;;;;;18.13;11.93;;;;;;;-3.05;100.00;92857.16;2098157;28;20751;-82
2022/04/03 03:28:14;;;;;;;19.20;12.63;;;;;;;-3.09;100.00;92864.16;2090227;28;20102;-84
2022/04/03 03:29:15;;;;;;;18.45;12.23;;;;;;;-3.10;100.00;92856.66;2090145;28;20490;-82
2022/04/03 03:30:16;;;;;;;19.60;12.82;;;;;;;-3.10;100.00;92857.41;2090118;28;20778;-82
2022/04/03 03:31:17;;;;;;;17.83;12.68;;;;;;;-3.23;100.00;92861.19;2097741;28;20020;-82
2022/04/03 03:32:19;;;;;;;20.40;12.00;;;;;;;-3.22;100.00;92861.94;2114350;28;20062;-82
2022/04/03 03:33:20;;;;;;;17.88;11.98;;;;;;;-3.22;100.00;92864.56;2106871;28;20034;-82
2022/04/03 03:34:22;;;;;;;19.80;13.05;;;;;;;-3.01;100.00;92859.13;2098166;28;20024;-82
2022/04/03 03:35:23;;;;;;;20.20;13.25;;;;;;;-3.05;100.00;92866.88;2090420;28;20120;-82
2022/04/03 03:36:24;;;;;;;17.35;12.07;;;;;;;-2.95;100.00;92858.53;2089585;28;20087;-83
2022/04/03 03:37:25;;;;;;;16.45;12.18;;;;;;;-2.88;100.00;92863.19;2098341;28;20024;-82
2022/04/03 03:38:27;;;;;;;19.58;11.57;;;;;;;-3.03;100.00;92862.06;2099433;28;20063;-83
2022/04/03 03:39:28;;;;;;;14.48;11.38;;;;;;;-2.96;100.00;92858.88;2088334;28;20104;-84
2022/04/03 03:40:29;;;;;;;19.65;12.38;;;;;;;-2.80;100.00;92859.63;2086279;28;20071;-82
2022/04/03 03:41:38;;;;;;;16.67;12.38;;;;;;;-2.89;100.00;92867.66;2096349;28;20027;-82
2022/04/03 03:42:41;;;;;;;17.73;12.05;;;;;;;-2.95;100.00;92865.59;2107201;28;20020;-83
2022/04/03 03:43:43;;;;;;;18.83;11.60;;;;;;;-2.90;100.00;92865.34;2098562;28;20032;-83
2022/04/03 03:44:44;;;;;;;17.83;12.68;;;;;;;-3.06;100.00;92865.34;2086419;28;20029;-82
2022/04/03 03:45:45;;;;;;;16.90;12.43;;;;;;;-3.08;100.00;92864.91;2089830;28;20033;-81
2022/04/03 03:46:46;;;;;;;18.75;12.15;;;;;;;-3.13;100.00;92858.09;2091125;28;20021;-83
2022/04/03 03:47:48;;;;;;;15.13;12.00;;;;;;;-3.22;100.00;92865.31;2089876;28;20032;-82
2022/04/03 03:48:49;;;;;;;16.30;12.50;;;;;;;-3.22;100.00;92867.19;2100196;28;20591;-82
2022/04/03 03:49:50;;;;;;;21.38;13.02;;;;;;;-3.18;100.00;92866.19;2106763;28;20066;-83
2022/04/03 03:50:52;;;;;;;16.95;12.18;;;;;;;-2.98;100.00;92863.69;2096258;28;20020;-81
2022/04/03 03:51:53;;;;;;;19.55;12.80;;;;;;;-2.98;100.00;92861.06;2099788;28;20033;-82
2022/04/03 03:52:54;;;;;;;17.20;12.10;;;;;;;-3.19;100.00;92863.91;2097472;28;20024;-82
2022/04/03 03:53:54;;;;;;;18.33;12.52;;;;;;;-3.18;100.00;92865.41;2090038;28;20047;-83
2022/04/03 03:54:56;;;;;;;17.25;12.48;;;;;;;-3.08;100.00;92862.31;2106178;28;20020;-83
2022/04/03 03:55:57;;;;;;;19.58;12.88;;;;;;;-3.24;100.00;92872.00;2114893;28;20019;-83
2022/04/03 03:56:58;;;;;;;18.70;13.15;;;;;;;-3.11;100.00;92866.38;2098028;28;20674;-82
2022/04/03 03:57:59;;;;;;;16.80;12.75;;;;;;;-3.12;100.00;92866.69;2098123;28;20070;-82
2022/04/03 03:59:00;;;;;;;15.55;12.20;;;;;;;-2.99;100.00;92870.75;2099200;28;20473;-83
2022/04/03 04:00:03;;;;;;;20.20;12.60;;;;;;;-3.02;100.00;92868.06;2089387;28;20107;-83
2022/04/03 04:01:04;;;;;;;17.95;12.85;;;;;;;-2.91;100.00;92864.59;2092890;28;20016;-82
2022/04/03 04:02:06;;;;;;;19.08;12.60;;;;;;;-2.95;100.00;92868.22;2091712;28;20029;-83
2022/04/03 04:03:07;;;;;;;16.10;12.23;;;;;;;-3.08;100.00;92870.91;2098246;28;20519;-83
2022/04/03 04:04:08;;;;;;;17.52;12.15;;;;;;;-3.05;100.00;92865.00;2090102;28;20016;-82
2022/04/03 04:05:09;;;;;;;19.25;12.82;;;;;;;-3.15;100.00;92869.97;2098266;28;20485;-82
2022/04/03 04:06:10;;;;;;;17.63;12.60;;;;;;;-3.08;100.00;92870.91;2106598;28;20024;-82
2022/04/03 04:07:11;;;;;;;19.17;12.85;;;;;;;-3.10;100.00;92870.50;2106572;28;20361;-82
2022/04/03 04:08:12;;;;;;;17.27;12.60;;;;;;;-2.95;100.00;92868.22;2097129;28;20086;-83
2022/04/03 04:09:14;;;;;;;21.65;13.18;;;;;;;-2.96;100.00;92866.72;2106532;28;20020;-82
2022/04/03 04:10:16;;;;;;;18.25;13.38;;;;;;;-3.13;100.00;92873.75;2107864;28;20496;-81
2022/04/03 04:11:20;;;;;;;16.88;13.10;;;;;;;-3.20;100.00;92863.16;2097936;28;20354;-83
2022/04/03 04:12:21;;;;;;;18.20;11.88;;;;;;;-3.11;100.00;92865.59;2106353;27;20039;-82
2022/04/03 04:13:22;;;;;;;18.98;13.50;;;;;;;-3.24;100.00;92864.91;2106302;28;20020;-83
2022/04/03 04:14:23;;;;;;;19.27;13.25;;;;;;;-3.18;100.00;92873.25;2105796;28;20028;-82
2022/04/03 04:15:25;;;;;;;22.95;12.73;;;;;;;-3.20;100.00;92871.00;2097767;28;20799;-84
2022/04/03 04:16:26;;;;;;;19.27;13.85;;;;;;;-3.28;100.00;92865.91;2090107;28;20449;-84
2022/04/03 04:17:27;;;;;;;19.15;13.23;;;;;;;-3.16;100.00;92864.00;2089674;28;20030;-85
2022/04/03 04:18:29;;;;;;;16.38;12.43;;;;;;;-3.18;100.00;92870.66;2083741;28;20029;-82
2022/04/03 04:19:30;;;;;;;18.67;12.95;;;;;;;-3.18;100.00;92868.78;2090173;28;20081;-84
2022/04/03 04:20:31;;;;;;;19.70;13.38;;;;;;;-3.32;100.00;92873.66;2098104;28;20593;-84
2022/04/03 04:21:32;;;;;;;19.42;13.27;;;;;;;-3.26;100.00;92867.09;2089915;28;20021;-82
2022/04/03 04:22:46;;;;;;;19.60;13.30;;;;;;;-3.16;100.00;92874.47;2088450;28;20124;-84
2022/04/03 04:23:47;;;;;;;24.05;13.35;;;;;;;-3.22;100.00;92877.63;2093245;28;20748;-82
2022/04/03 04:24:48;;;;;;;18.67;13.40;;;;;;;-3.27;100.00;92881.25;2097991;28;20027;-84
2022/04/03 04:25:49;;;;;;;21.25;13.10;;;;;;;-3.10;100.00;92886.19;2102861;28;20023;-81
2022/04/03 04:26:50;;;;;;;20.40;13.32;;;;;;;-3.11;100.00;92871.59;2114871;28;20106;-83
2022/04/03 04:27:51;;;;;;;20.48;13.32;;;;;;;-3.14;100.00;92876.72;2097699;28;20366;-83
2022/04/03 04:28:52;;;;;;;21.63;13.90;;;;;;;-3.07;100.00;92889.97;2089553;28;20461;-82
2022/04/03 04:29:53;;;;;;;18.63;13.82;;;;;;;-3.05;100.00;92882.56;2083386;28;20113;-83
2022/04/03 04:30:57;;;;;;;18.23;12.57;;;;;;;-2.94;100.00;92885.41;2099587;28;20469;-82
2022/04/03 04:31:58;;;;;;;19.05;12.60;;;;;;;-2.89;100.00;92887.81;2089842;28;20102;-82
2022/04/03 04:32:59;;;;;;;20.75;13.20;;;;;;;-2.93;100.00;92886.97;2093713;28;20058;-83
2022/04/03 04:34:00;;;;;;;18.67;13.48;;;;;;;-2.93;100.00;92886.97;2097969;28;20028;-83
2022/04/03 04:35:01;;;;;;;20.60;12.77;;;;;;;-3.06;100.00;92888.88;2097309;28;20044;-82
2022/04/03 04:36:03;;;;;;;19.75;13.50;;;;;;;-3.15;100.00;92885.66;2105569;28;20032;-84
2022/04/03 04:37:03;;;;;;;21.15;12.90;;;;;;;-3.16;100.00;92889.34;2089444;28;20140;-82
2022/04/03 04:38:05;;;;;;;14.90;11.93;;;;;;;-3.13;100.00;92886.06;2088530;28;20029;-82
2022/04/03 04:39:06;;;;;;;16.88;12.38;;;;;;;-2.95;100.00;92892.50;2089626;28;20020;-82
2022/04/03 04:40:09;;;;;;;17.55;12.50;;;;;;;-3.17;100.00;92893.06;2089747;28;20061;-82
2022/04/03 04:41:10;;;;;;;19.15;13.10;;;;;;;-3.07;100.00;92888.13;2089518;28;20497;-83
2022/04/03 04:42:19;;;;;;;18.27;12.15;;;;;;;-3.07;100.00;92888.13;2093506;28;20103;-82